Time;durP1;ratioP1;P1;durP2;ratioP2;P2;SDS_P1;SDS_P2;PMS_P1;PMS_P2;Temp;Humidity;BMP_temperature;BMP_pressure;BME280_temperature;BME280_humidity;BME280_pressure;Samples;Min_cycle;Max_cycle;Signal;HPM_P1;HPM_P2
2021/12/27 00:01:38;;;;;;;4.55;3.63;;;;;;;3.73;96.49;100054.47;5053716;28;20059;-73
2021/12/27 00:04:11;;;;;;;11.55;4.40;;;;;;;3.79;96.26;100061.84;5053002;28;20803;-72
2021/12/27 00:06:42;;;;;;;8.38;3.55;;;;;;;3.79;96.04;100049.72;5050189;28;20119;-72
2021/12/27 00:09:08;;;;;;;7.78;3.35;;;;;;;3.81;96.59;100044.41;5051400;28;20049;-72
2021/12/27 00:11:44;;;;;;;7.18;4.55;;;;;;;3.80;95.97;100046.19;5054633;28;20045;-73
2021/12/27 00:14:18;;;;;;;6.53;3.67;;;;;;;3.86;95.96;100039.78;5036720;28;20051;-72
2021/12/27 00:17:04;;;;;;;4.57;3.28;;;;;;;3.84;96.47;100047.66;5051362;28;20052;-72
2021/12/27 00:19:33;;;;;;;12.27;3.25;;;;;;;3.82;96.35;100039.13;5054868;28;20075;-74
2021/12/27 00:24:27;;;;;;;7.70;3.97;;;;;;;3.89;96.54;100039.56;5101233;27;20404;-74
2021/12/27 00:26:54;;;;;;;3.42;2.78;;;;;;;3.84;96.66;100037.25;5099258;27;20035;-72
2021/12/27 00:29:22;;;;;;;10.80;4.53;;;;;;;3.85;96.55;100036.34;5082353;28;20147;-74
2021/12/27 00:31:48;;;;;;;5.95;3.80;;;;;;;3.89;96.25;100036.97;5074538;28;20541;-75
2021/12/27 00:34:15;;;;;;;6.82;4.43;;;;;;;3.86;96.18;100032.00;5093978;28;20040;-73
2021/12/27 00:36:44;;;;;;;6.05;3.35;;;;;;;3.86;96.60;100034.59;5092371;28;20035;-72
2021/12/27 00:39:18;;;;;;;22.10;5.47;;;;;;;3.86;96.94;100035.41;5077273;28;20130;-74
2021/12/27 00:41:47;;;;;;;;;;;;;;;3.84;97.08;100034.66;5091358;28;20494;-73
2021/12/27 00:44:16;;;;;;;6.03;3.45;;;;;;;3.88;97.16;100028.38;5093854;28;19920;-73
2021/12/27 00:46:57;;;;;;;3.60;2.50;;;;;;;3.87;97.43;100031.91;5089809;28;20048;-74
2021/12/27 00:49:24;;;;;;;9.07;4.93;;;;;;;3.91;97.38;100027.34;5094677;28;20618;-73
2021/12/27 00:51:52;;;;;;;5.55;3.72;;;;;;;3.94;97.25;100022.78;5089891;28;20067;-74
2021/12/27 00:54:18;;;;;;;6.55;4.32;;;;;;;3.94;97.77;100027.97;5094910;28;20040;-73
2021/12/27 00:56:47;;;;;;;3.30;2.47;;;;;;;3.91;97.51;100015.16;5092523;28;20044;-73
2021/12/27 00:59:18;;;;;;;7.03;3.85;;;;;;;3.92;97.49;100022.03;5094874;28;20055;-74
2021/12/27 01:01:49;;;;;;;4.15;3.17;;;;;;;3.95;98.17;100016.66;5099653;28;20036;-74
2021/12/27 01:04:24;;;;;;;4.90;3.78;;;;;;;3.93;98.46;100013.31;5097053;28;20043;-74
2021/12/27 01:06:51;;;;;;;6.97;4.07;;;;;;;3.96;98.52;100010.53;5105209;28;20455;-73
2021/12/27 01:09:36;;;;;;;10.38;3.92;;;;;;;3.96;98.06;100010.53;5115465;28;20108;-73
2021/12/27 01:12:26;;;;;;;5.57;3.40;;;;;;;3.98;98.74;100014.69;5102916;28;20123;-74
2021/12/27 01:15:21;;;;;;;5.55;3.67;;;;;;;3.95;98.71;100019.25;5095077;28;20058;-74
2021/12/27 01:17:50;;;;;;;6.53;3.45;;;;;;;3.89;99.43;100014.44;5090270;28;20044;-74
2021/12/27 01:20:23;;;;;;;7.43;4.55;;;;;;;3.92;99.30;100018.63;5091387;28;20468;-74
2021/12/27 01:22:52;;;;;;;6.22;3.67;;;;;;;3.92;99.58;100008.22;5085569;28;20502;-74
2021/12/27 01:25:22;;;;;;;6.22;4.68;;;;;;;3.89;99.53;100009.25;5088534;28;20067;-74
2021/12/27 01:27:53;;;;;;;9.25;4.25;;;;;;;3.94;99.83;100011.56;5084714;28;20115;-72
2021/12/27 01:30:23;;;;;;;7.65;4.65;;;;;;;3.91;100.00;100003.94;5090412;28;20424;-73
2021/12/27 01:33:08;;;;;;;6.40;3.72;;;;;;;3.90;100.00;99999.69;5072995;28;20139;-73
2021/12/27 01:35:37;;;;;;;;;;;;;;;3.89;99.99;100004.06;5091490;27;20059;-75
2021/12/27 01:38:08;;;;;;;4.90;3.15;;;;;;;3.89;100.00;100009.25;5075193;28;20354;-75
2021/12/27 01:40:50;;;;;;;3.50;3.03;;;;;;;3.88;100.00;100006.72;5076579;28;20063;-73
2021/12/27 01:43:25;;;;;;;4.82;3.30;;;;;;;3.87;100.00;100011.09;5073868;28;20042;-74
2021/12/27 01:46:04;;;;;;;8.82;5.30;;;;;;;3.86;100.00;100001.66;5077672;28;20044;-73
2021/12/27 01:48:48;;;;;;;4.05;2.90;;;;;;;3.90;100.00;99999.69;5074654;28;20127;-73
2021/12/27 01:51:16;;;;;;;3.85;2.70;;;;;;;3.91;100.00;99999.56;5057058;28;20690;-75
2021/12/27 01:53:59;;;;;;;4.28;3.10;;;;;;;3.96;100.00;99998.34;5079355;28;20044;-73
2021/12/27 01:56:29;;;;;;;13.57;3.90;;;;;;;3.96;100.00;99997.53;5076639;28;20044;-75
2021/12/27 01:59:00;;;;;;;7.20;3.70;;;;;;;3.94;100.00;99995.97;5071507;28;20394;-73
2021/12/27 02:01:27;;;;;;;6.03;3.95;;;;;;;3.97;100.00;100000.03;5076759;28;20036;-75
2021/12/27 02:03:55;;;;;;;7.00;4.07;;;;;;;3.96;100.00;99992.34;5080288;28;20055;-73
2021/12/27 02:06:22;;;;;;;9.32;2.70;;;;;;;4.00;100.00;100002.44;5078995;28;20188;-73
2021/12/27 02:08:57;;;;;;;4.43;4.03;;;;;;;4.00;100.00;99993.78;5074586;28;20047;-74
2021/12/27 02:11:24;;;;;;;5.03;3.35;;;;;;;3.99;100.00;99989.53;5077516;28;20067;-75
2021/12/27 02:13:58;;;;;;;7.07;3.83;;;;;;;3.98;100.00;99999.09;5062669;28;20544;-74
2021/12/27 02:16:26;;;;;;;8.88;3.65;;;;;;;3.99;100.00;99994.72;5078001;28;20380;-75
2021/12/27 02:19:01;;;;;;;3.95;2.63;;;;;;;3.98;100.00;99985.28;5080792;28;20734;-73
2021/12/27 02:21:29;;;;;;;7.60;3.85;;;;;;;4.00;100.00;99980.81;5077759;28;20043;-73
2021/12/27 02:24:01;;;;;;;6.03;3.75;;;;;;;4.07;100.00;99974.28;5081294;28;20126;-74
2021/12/27 02:26:28;;;;;;;8.85;4.50;;;;;;;4.02;100.00;99978.94;5083304;28;20083;-74
2021/12/27 02:28:58;;;;;;;6.47;4.60;;;;;;;3.98;100.00;99975.72;5086948;28;20487;-73
2021/12/27 02:31:27;;;;;;;7.20;3.47;;;;;;;3.96;100.00;99972.38;5089185;28;20043;-75
2021/12/27 02:34:10;;;;;;;3.28;2.92;;;;;;;3.96;100.00;99972.38;5089105;28;20522;-74
2021/12/27 02:36:56;;;;;;;5.63;3.55;;;;;;;4.01;100.00;99972.06;5079990;28;20101;-73
2021/12/27 02:39:25;;;;;;;9.63;3.47;;;;;;;4.07;100.00;99979.47;5085155;28;20077;-75
2021/12/27 02:45:17;;;;;;;9.23;3.38;;;;;;;4.14;100.00;99978.16;5062235;27;1239863;-74
2021/12/27 02:47:46;;;;;;;8.10;4.10;;;;;;;4.14;100.00;99970.38;5058092;28;20139;-75
2021/12/27 02:50:14;;;;;;;6.47;4.53;;;;;;;4.11;100.00;99971.38;5080939;28;20048;-75
2021/12/27 02:52:41;;;;;;;4.97;3.40;;;;;;;4.11;100.00;99971.38;5082649;28;20490;-75
2021/12/27 02:55:08;;;;;;;5.95;3.85;;;;;;;4.14;100.00;99967.78;5082513;28;20054;-74
2021/12/27 02:57:36;;;;;;;8.35;3.60;;;;;;;4.12;100.00;99969.63;5068741;28;20048;-75
2021/12/27 03:00:17;;;;;;;5.28;3.92;;;;;;;4.12;100.00;99965.25;5055206;28;20082;-73
2021/12/27 03:02:59;;;;;;;4.68;3.35;;;;;;;4.16;100.00;99955.47;5091882;28;20039;-73
2021/12/27 03:05:29;;;;;;;7.25;3.70;;;;;;;4.16;100.00;99945.09;5108017;28;20028;-74
2021/12/27 03:07:56;;;;;;;5.95;3.20;;;;;;;4.21;100.00;99948.25;5100161;28;20032;-74
2021/12/27 03:10:25;;;;;;;6.20;3.83;;;;;;;4.15;100.00;99943.41;5063416;28;20040;-74
2021/12/27 03:13:01;;;;;;;5.95;4.28;;;;;;;4.18;100.00;99943.22;5069812;28;20123;-75
2021/12/27 03:15:35;;;;;;;7.13;4.30;;;;;;;4.25;100.00;99941.88;5079928;28;20044;-74
2021/12/27 03:18:11;;;;;;;8.40;4.55;;;;;;;4.28;100.00;99952.09;5080944;28;20123;-74
2021/12/27 03:20:48;;;;;;;8.43;4.78;;;;;;;4.29;100.00;99943.38;5084360;28;20043;-73
2021/12/27 03:23:22;;;;;;;5.88;3.22;;;;;;;4.31;100.00;99938.91;5058614;28;20545;-75
2021/12/27 03:25:57;;;;;;;5.00;3.22;;;;;;;4.33;100.00;99935.25;5075279;28;20044;-73
2021/12/27 03:28:24;;;;;;;6.63;3.67;;;;;;;4.30;100.00;99939.84;5076350;28;20040;-71
2021/12/27 03:30:57;;;;;;;7.85;4.15;;;;;;;4.31;100.00;99944.94;5077716;28;20043;-73
2021/12/27 03:33:24;;;;;;;7.28;4.18;;;;;;;4.29;100.00;99940.78;5057145;28;20052;-73
2021/12/27 03:36:01;;;;;;;6.03;4.65;;;;;;;4.29;100.00;99940.78;5078909;28;20040;-73
2021/12/27 03:38:37;;;;;;;6.32;4.18;;;;;;;4.27;100.00;99937.44;5075346;28;20071;-72
2021/12/27 03:41:13;;;;;;;7.32;4.05;;;;;;;4.28;100.00;99933.91;5074695;28;20048;-72
2021/12/27 03:43:43;;;;;;;8.02;4.68;;;;;;;4.28;100.00;99934.72;5077212;28;20056;-72
2021/12/27 03:46:11;;;;;;;4.63;3.63;;;;;;;4.31;100.00;99944.09;5076626;28;20542;-72
2021/12/27 03:48:47;;;;;;;5.90;4.22;;;;;;;4.31;100.00;99937.13;5080300;28;20078;-73
2021/12/27 03:51:14;;;;;;;6.47;4.20;;;;;;;4.31;100.00;99928.50;5074813;28;20046;-74
2021/12/27 03:53:40;;;;;;;4.63;3.17;;;;;;;4.32;100.00;99938.78;5075372;28;20423;-72
2021/12/27 03:56:08;;;;;;;5.90;3.53;;;;;;;4.40;100.00;99946.91;5067719;28;20136;-71
2021/12/27 03:58:54;;;;;;;4.70;3.58;;;;;;;4.38;100.00;99930.56;5046313;28;20048;-71
2021/12/27 04:04:03;;;;;;;7.03;3.78;;;;;;;4.40;100.00;99933.91;5078924;27;20416;-70
2021/12/27 04:06:29;;;;;;;4.30;3.13;;;;;;;4.44;100.00;99930.16;5054149;28;20041;-72
2021/12/27 04:09:03;;;;;;;5.88;4.15;;;;;;;4.47;100.00;99922.16;5073215;28;20045;-71
2021/12/27 04:11:32;;;;;;;8.57;5.15;;;;;;;4.47;100.00;99908.34;5071486;28;20122;-73
2021/12/27 04:17:10;;;;;;;5.47;3.72;;;;;;;4.45;100.00;99905.81;4998050;27;1200399;-73
2021/12/27 04:19:47;;;;;;;8.65;5.15;;;;;;;4.45;100.00;99892.00;5029956;28;20049;-74
2021/12/27 04:22:21;;;;;;;4.43;2.80;;;;;;;4.42;100.00;99894.81;5011985;28;20041;-72
2021/12/27 04:25:05;;;;;;;8.10;4.45;;;;;;;4.45;100.00;99894.59;5033534;28;20049;-72
2021/12/27 04:27:50;;;;;;;4.97;3.45;;;;;;;4.47;100.00;99888.38;5024352;28;20052;-73
2021/12/27 04:30:20;;;;;;;6.82;3.30;;;;;;;4.47;100.00;99890.16;5029822;28;20052;-73
2021/12/27 04:33:00;;;;;;;5.25;3.50;;;;;;;4.48;100.00;99889.19;5029200;28;20472;-73
2021/12/27 04:35:30;;;;;;;7.80;5.20;;;;;;;4.49;100.00;99891.69;5028969;28;20049;-73
2021/12/27 04:37:57;;;;;;;5.07;2.80;;;;;;;4.52;100.00;99891.47;5023869;28;20932;-73
2021/12/27 04:40:25;;;;;;;4.22;3.13;;;;;;;4.52;100.00;99898.44;5027031;28;20698;-72
2021/12/27 04:43:06;;;;;;;4.05;2.53;;;;;;;4.54;100.00;99899.19;5034121;28;20045;-73
2021/12/27 04:45:33;;;;;;;5.70;4.22;;;;;;;4.54;100.00;99886.19;5027791;28;20053;-72
2021/12/27 04:48:08;;;;;;;7.80;4.72;;;;;;;4.55;100.00;99885.25;5035783;28;20559;-73
2021/12/27 04:50:50;;;;;;;15.52;4.15;;;;;;;4.58;100.00;99874.63;5018443;28;20045;-73
2021/12/27 04:53:17;;;;;;;4.03;3.03;;;;;;;4.59;100.00;99878.88;5036600;28;20061;-73
2021/12/27 04:55:51;;;;;;;10.52;5.13;;;;;;;4.60;100.00;99875.34;5014975;28;20430;-73
2021/12/27 04:58:23;;;;;;;8.20;4.05;;;;;;;4.61;100.00;99864.03;5040430;28;20041;-72
2021/12/27 05:01:00;;;;;;;10.45;4.15;;;;;;;4.62;100.00;99876.09;5049379;28;20033;-73
2021/12/27 05:03:29;;;;;;;5.68;3.80;;;;;;;4.62;100.00;99870.88;5055324;28;20732;-73
2021/12/27 05:06:02;;;;;;;7.38;3.92;;;;;;;4.60;100.00;99870.16;5032788;28;20029;-74
2021/12/27 05:08:32;;;;;;;5.53;3.00;;;;;;;4.63;100.00;99872.56;5048909;28;20049;-72
2021/12/27 05:11:06;;;;;;;9.10;3.88;;;;;;;4.63;100.00;99875.16;5031819;28;20045;-73
2021/12/27 05:13:51;;;;;;;5.75;4.03;;;;;;;4.65;100.00;99870.66;5032818;28;20294;-72
2021/12/27 05:16:21;;;;;;;8.32;4.40;;;;;;;4.67;100.00;99874.00;5031199;28;20053;-73
2021/12/27 05:18:51;;;;;;;7.28;5.50;;;;;;;4.68;100.00;99871.28;5027258;28;20056;-74
2021/12/27 05:21:18;;;;;;;10.05;4.60;;;;;;;4.71;100.00;99875.47;5029262;28;20038;-73
2021/12/27 05:23:53;;;;;;;6.05;4.28;;;;;;;4.70;100.00;99876.41;5026259;28;20049;-73
2021/12/27 05:26:21;;;;;;;8.73;4.53;;;;;;;4.72;100.00;99862.34;5008694;28;20068;-72
2021/12/27 05:28:49;;;;;;;9.20;4.80;;;;;;;4.72;100.00;99864.13;5014254;28;20200;-74
2021/12/27 05:31:16;;;;;;;7.35;4.25;;;;;;;4.74;100.00;99856.09;5006021;28;20050;-73
2021/12/27 05:33:59;;;;;;;7.20;3.87;;;;;;;4.80;100.00;99855.66;5011920;28;20045;-73
2021/12/27 05:36:32;;;;;;;4.63;2.80;;;;;;;4.81;100.00;99857.31;5019847;28;20442;-74
2021/12/27 05:39:19;;;;;;;7.57;4.57;;;;;;;4.77;100.00;99857.63;4995296;28;20048;-75
2021/12/27 05:41:52;;;;;;;6.65;4.03;;;;;;;4.75;100.00;99849.13;5013699;28;20522;-73
2021/12/27 05:44:22;;;;;;;3.80;2.67;;;;;;;4.85;100.00;99855.34;5011270;28;20083;-74
2021/12/27 05:46:58;;;;;;;7.18;2.72;;;;;;;4.81;100.00;99852.13;5014681;28;20049;-72
2021/12/27 05:49:28;;;;;;;8.15;4.50;;;;;;;4.81;99.66;99853.91;5007110;28;20049;-73
2021/12/27 05:52:01;;;;;;;6.57;3.45;;;;;;;4.83;99.99;99855.44;5014016;28;20049;-74
2021/12/27 05:54:46;;;;;;;5.32;3.97;;;;;;;4.86;100.00;99854.41;5013378;28;20522;-73
2021/12/27 05:57:21;;;;;;;7.22;4.95;;;;;;;4.84;99.63;99857.13;5018493;28;20045;-73
2021/12/27 05:59:48;;;;;;;10.50;5.05;;;;;;;4.88;99.83;99858.53;5014124;28;20908;-72
2021/12/27 06:02:22;;;;;;;4.07;3.15;;;;;;;4.83;100.00;99855.44;5010872;28;20182;-73
2021/12/27 06:04:57;;;;;;;4.95;3.47;;;;;;;4.90;99.82;99859.28;5012618;28;20044;-72
2021/12/27 06:10:11;;;;;;;12.30;5.30;;;;;;;4.95;99.43;99856.34;5083097;27;1222763;-74
2021/12/27 06:12:44;;;;;;;7.20;4.28;;;;;;;4.94;99.06;99852.09;5107020;28;20054;-73
2021/12/27 06:15:14;;;;;;;10.20;4.53;;;;;;;4.97;99.13;99857.09;5088051;28;20054;-74
2021/12/27 06:17:50;;;;;;;6.30;3.33;;;;;;;4.98;99.86;99849.16;5109460;28;20040;-73
2021/12/27 06:20:18;;;;;;;8.88;4.65;;;;;;;4.99;99.18;99843.03;5086908;28;20089;-73
2021/12/27 06:22:59;;;;;;;5.38;3.85;;;;;;;4.97;98.94;99850.09;5110314;28;20141;-75
2021/12/27 06:25:31;;;;;;;7.68;3.75;;;;;;;4.93;99.11;99851.28;5103304;28;20047;-73
2021/12/27 06:28:01;;;;;;;4.70;3.10;;;;;;;4.90;99.63;99856.69;5110371;28;20050;-73
2021/12/27 06:30:34;;;;;;;5.18;3.28;;;;;;;4.93;99.05;99842.63;5107911;28;20083;-73
2021/12/27 06:33:11;;;;;;;6.78;3.85;;;;;;;4.91;99.48;99852.31;5100545;28;20088;-73
2021/12/27 06:35:45;;;;;;;4.25;3.17;;;;;;;4.88;99.12;99842.94;5089757;28;20062;-72
2021/12/27 06:38:12;;;;;;;9.98;4.40;;;;;;;4.84;98.87;99846.72;5107456;27;20042;-73
2021/12/27 06:40:44;;;;;;;7.13;3.42;;;;;;;4.88;99.24;99844.72;5091771;28;20047;-73
2021/12/27 06:43:21;;;;;;;6.50;3.85;;;;;;;4.84;99.81;99844.09;5109553;28;20047;-73
2021/12/27 06:45:48;;;;;;;7.40;4.25;;;;;;;4.83;99.91;99839.84;5089026;28;20058;-74
2021/12/27 06:48:22;;;;;;;3.75;2.95;;;;;;;4.87;99.57;99841.31;5103443;28;20112;-74
2021/12/27 06:51:08;;;;;;;7.30;4.35;;;;;;;4.88;99.20;99837.72;5107855;28;20121;-73
2021/12/27 06:53:55;;;;;;;3.88;3.00;;;;;;;4.87;99.80;99833.50;5104017;28;20040;-73
2021/12/27 06:56:39;;;;;;;5.05;3.67;;;;;;;4.83;99.32;99832.03;5118206;28;20040;-72
2021/12/27 06:59:23;;;;;;;5.50;3.80;;;;;;;4.82;99.14;99835.56;5127190;28;20039;-72
2021/12/27 07:01:49;;;;;;;9.40;4.55;;;;;;;4.89;99.55;99835.97;5124558;28;20122;-72
2021/12/27 07:04:22;;;;;;;;;;;;;;;4.86;99.30;99833.59;5110328;28;20045;-74
2021/12/27 07:06:48;;;;;;;5.63;3.72;;;;;;;4.85;99.15;99843.16;5114364;28;19923;-73
2021/12/27 07:09:21;;;;;;;7.35;3.28;;;;;;;4.84;99.40;99835.47;5098590;28;20048;-74
2021/12/27 07:11:56;;;;;;;5.07;3.78;;;;;;;4.81;99.70;99838.28;5109206;28;20042;-72
2021/12/27 07:14:22;;;;;;;5.10;2.92;;;;;;;4.83;100.00;99834.63;5104186;27;20059;-73
2021/12/27 07:16:59;;;;;;;5.28;2.92;;;;;;;4.82;99.44;99825.16;5109476;28;20047;-73
2021/12/27 07:19:26;;;;;;;9.88;4.28;;;;;;;4.78;99.89;99826.34;5103546;28;20036;-72
2021/12/27 07:21:52;;;;;;;5.45;4.18;;;;;;;4.77;99.91;99814.25;5094145;28;20036;-73
2021/12/27 07:24:19;;;;;;;12.18;4.18;;;;;;;4.81;99.48;99815.69;5092891;28;20044;-73
2021/12/27 07:27:04;;;;;;;9.15;4.53;;;;;;;4.85;99.99;99817.16;5076429;28;20069;-74
2021/12/27 07:29:36;;;;;;;9.60;4.10;;;;;;;4.85;99.83;99811.94;5093389;28;20040;-74
2021/12/27 07:32:06;;;;;;;8.57;3.72;;;;;;;4.85;99.99;99814.56;5077854;28;20052;-74
2021/12/27 07:34:39;;;;;;;6.32;3.00;;;;;;;4.87;99.75;99820.50;5097931;28;20811;-72
2021/12/27 07:37:22;;;;;;;15.55;4.30;;;;;;;4.87;99.64;99815.28;5082959;28;20126;-73
2021/12/27 07:39:55;;;;;;;9.07;3.67;;;;;;;4.85;100.00;99817.16;5108766;28;20050;-73
2021/12/27 07:42:23;;;;;;;5.70;3.28;;;;;;;4.81;99.28;99810.50;5091122;28;20039;-73
2021/12/27 07:45:04;;;;;;;7.63;4.20;;;;;;;4.80;99.76;99814.03;5088476;28;20055;-74
2021/12/27 07:47:34;;;;;;;10.68;4.63;;;;;;;4.77;99.09;99803.84;5078301;28;20039;-73
2021/12/27 07:50:08;;;;;;;14.63;3.90;;;;;;;4.75;99.77;99816.13;5097218;28;20055;-73
2021/12/27 07:52:35;;;;;;;6.28;3.65;;;;;;;4.78;100.00;99810.72;5075002;28;20065;-74
2021/12/27 07:55:18;;;;;;;3.70;2.75;;;;;;;4.84;99.88;99815.50;5073699;28;20044;-73
2021/12/27 07:57:59;;;;;;;4.57;2.72;;;;;;;4.85;100.00;99811.94;5083951;28;20043;-74
2021/12/27 08:00:32;;;;;;;6.82;4.78;;;;;;;4.78;99.58;99808.13;5089523;28;20097;-76
2021/12/27 08:03:12;;;;;;;6.35;3.78;;;;;;;4.70;99.48;99812.19;5072591;28;20047;-74
2021/12/27 08:05:40;;;;;;;5.72;3.38;;;;;;;4.65;99.50;99814.28;5091249;28;20043;-72
2021/12/27 08:08:07;;;;;;;4.90;3.40;;;;;;;4.71;100.00;99810.44;5088822;28;20032;-73
2021/12/27 08:10:47;;;;;;;4.80;3.22;;;;;;;4.74;99.65;99817.06;5088998;28;20055;-73
2021/12/27 08:13:15;;;;;;;5.35;3.90;;;;;;;4.71;100.00;99808.66;5084487;28;20039;-73
2021/12/27 08:15:50;;;;;;;8.63;3.63;;;;;;;4.74;100.00;99809.25;5095485;28;20040;-70
2021/12/27 08:18:22;;;;;;;3.90;2.88;;;;;;;4.78;100.00;99808.13;5086184;28;20662;-71
2021/12/27 08:20:49;;;;;;;8.65;5.00;;;;;;;4.80;99.87;99795.00;5087849;28;20083;-72
2021/12/27 08:23:18;;;;;;;4.20;3.53;;;;;;;4.84;99.49;99802.47;5089165;28;20071;-73
2021/12/27 08:29:14;;;;;;;10.32;5.38;;;;;;;4.96;99.64;99806.84;5092494;27;20458;-72
2021/12/27 08:31:57;;;;;;;6.00;3.83;;;;;;;5.06;99.31;99809.59;5082806;28;20043;-71
2021/12/27 08:34:34;;;;;;;8.68;4.78;;;;;;;5.17;98.46;99804.47;5086255;28;20123;-71
2021/12/27 08:37:01;;;;;;;7.93;3.83;;;;;;;5.24;98.48;99797.88;5088327;28;20339;-75
2021/12/27 08:39:41;;;;;;;6.55;4.45;;;;;;;5.30;98.37;99800.84;5122853;27;20526;-74
2021/12/27 08:42:10;;;;;;;6.55;3.97;;;;;;;5.41;97.73;99794.88;5089909;28;20036;-73
2021/12/27 08:44:58;;;;;;;7.45;3.20;;;;;;;5.42;97.66;99799.97;5087334;28;20051;-74
2021/12/27 08:47:24;;;;;;;8.18;4.13;;;;;;;5.47;97.65;99799.63;5089774;28;20140;-72
2021/12/27 08:49:53;;;;;;;4.47;3.05;;;;;;;5.48;97.06;99788.28;5096210;28;20146;-71
2021/12/27 08:52:21;;;;;;;6.70;4.32;;;;;;;5.52;97.71;99782.72;5104966;28;20039;-71
2021/12/27 08:54:48;;;;;;;7.07;3.60;;;;;;;5.55;97.26;99782.47;5106543;28;20050;-70
2021/12/27 08:57:23;;;;;;;6.65;3.72;;;;;;;5.63;97.19;99773.16;5102390;28;20052;-72
2021/12/27 08:59:53;;;;;;;9.70;5.75;;;;;;;5.71;96.79;99778.63;5083312;28;20059;-72
2021/12/27 09:02:24;;;;;;;6.65;4.30;;;;;;;5.82;96.55;99773.50;5090303;28;20032;-71
2021/12/27 09:04:59;;;;;;;7.72;4.30;;;;;;;5.88;96.38;99772.19;5086417;28;20050;-71
2021/12/27 09:07:25;;;;;;;7.05;4.72;;;;;;;5.86;96.07;99774.09;5085817;28;20097;-71
2021/12/27 09:10:01;;;;;;;10.85;5.05;;;;;;;5.86;96.58;99774.09;5080234;28;20048;-71
2021/12/27 09:12:42;;;;;;;6.97;4.10;;;;;;;6.02;96.68;99785.03;5098115;28;20032;-72
2021/12/27 09:15:09;;;;;;;8.52;3.80;;;;;;;6.15;95.64;99783.13;5082422;28;20066;-72
2021/12/27 09:17:49;;;;;;;9.27;5.68;;;;;;;6.15;95.38;99777.91;5088501;28;20047;-73
2021/12/27 09:20:17;;;;;;;6.95;3.88;;;;;;;6.17;95.25;99770.81;5087721;28;20074;-73
2021/12/27 09:22:46;;;;;;;12.95;4.63;;;;;;;6.27;95.19;99772.59;5087206;28;20038;-72
2021/12/27 09:25:17;;;;;;;8.68;3.45;;;;;;;6.23;94.70;99770.34;5083780;28;20038;-72
2021/12/27 09:27:49;;;;;;;7.05;4.00;;;;;;;6.16;95.30;99764.75;5086967;28;20129;-74
2021/12/27 09:30:16;;;;;;;8.50;3.83;;;;;;;6.19;95.20;99759.31;5086370;28;20032;-73
2021/12/27 09:32:51;;;;;;;9.75;5.47;;;;;;;6.37;95.04;99757.91;5113758;27;20064;-72
2021/12/27 09:35:19;;;;;;;6.22;4.43;;;;;;;6.54;94.76;99767.88;5089571;28;20043;-74
2021/12/27 09:37:56;;;;;;;5.47;3.47;;;;;;;6.62;93.82;99763.69;5092106;28;20483;-74
2021/12/27 09:40:22;;;;;;;6.13;4.63;;;;;;;6.79;92.97;99767.59;5077452;28;20093;-73
2021/12/27 09:43:04;;;;;;;6.32;4.22;;;;;;;6.76;92.51;99768.69;5075977;28;20044;-74
2021/12/27 09:45:31;;;;;;;9.35;4.72;;;;;;;6.67;93.24;99771.16;5071963;28;20041;-71
2021/12/27 09:48:00;;;;;;;10.88;3.45;;;;;;;6.78;92.72;99779.81;5071850;28;20047;-73
2021/12/27 09:50:31;;;;;;;9.32;4.38;;;;;;;6.92;93.40;99765.66;5074690;28;20151;-73
2021/12/27 09:53:05;;;;;;;6.97;3.38;;;;;;;6.96;92.43;99770.53;5073459;28;20079;-75
2021/12/27 09:55:33;;;;;;;8.23;4.70;;;;;;;6.93;92.35;99770.78;5077309;28;20067;-71
2021/12/27 09:58:00;;;;;;;7.97;4.68;;;;;;;6.94;91.81;99763.78;5077230;28;20050;-72
2021/12/27 10:00:30;;;;;;;8.70;4.53;;;;;;;6.88;92.78;99765.09;5077339;28;20151;-73
2021/12/27 10:03:09;;;;;;;8.00;4.75;;;;;;;7.03;91.84;99758.63;5076398;28;20108;-72
2021/12/27 10:05:43;;;;;;;16.65;4.13;;;;;;;6.97;92.30;99756.53;5075858;28;20048;-72
2021/12/27 10:08:10;;;;;;;8.50;4.90;;;;;;;7.18;92.64;99739.97;5069126;28;20375;-72
2021/12/27 10:10:47;;;;;;;10.48;4.70;;;;;;;7.65;90.63;99736.88;5077362;28;20109;-71
2021/12/27 10:13:21;;;;;;;7.78;4.13;;;;;;;7.87;88.85;99730.69;5072060;28;20045;-72
2021/12/27 10:16:14;;;;;;;10.88;5.03;;;;;;;8.27;87.83;99725.44;5084232;28;20045;-71
2021/12/27 10:19:03;;;;;;;12.10;5.38;;;;;;;8.39;86.71;99729.63;5093838;28;20082;-74
2021/12/27 10:21:29;;;;;;;6.88;4.60;;;;;;;8.18;87.56;99730.63;5098812;28;20032;-72
2021/12/27 10:24:04;;;;;;;8.45;4.00;;;;;;;7.85;88.36;99723.00;5083983;28;20051;-75
2021/12/27 10:26:33;;;;;;;8.55;4.78;;;;;;;7.70;89.51;99733.88;5076150;28;20055;-71
2021/12/27 10:29:22;;;;;;;8.35;3.88;;;;;;;7.57;89.43;99728.84;5027636;28;20079;-72
2021/12/27 10:31:58;;;;;;;11.50;6.03;;;;;;;7.71;89.83;99730.31;5029476;28;20040;-75
2021/12/27 10:34:35;;;;;;;7.35;3.95;;;;;;;7.94;89.00;99723.03;5028727;28;20053;-72
2021/12/27 10:37:09;;;;;;;10.25;4.00;;;;;;;8.24;88.68;99715.25;5033989;28;20522;-72
2021/12/27 17:29:24;;;;;;;6.25;3.05;;;;;;;8.35;93.99;99495.34;5093668;27;20392;-72
2021/12/27 17:31:51;;;;;;;7.25;2.72;;;;;;;8.35;93.96;99491.91;5088538;28;20088;-72
2021/12/27 17:34:22;;;;;;;8.02;2.85;;;;;;;8.31;94.18;99493.97;5089001;28;20446;-73
2021/12/27 17:37:08;;;;;;;3.22;1.83;;;;;;;8.31;94.26;99493.97;5089353;28;20056;-73
2021/12/27 17:39:37;;;;;;;5.65;2.33;;;;;;;8.31;94.13;99491.38;5089903;28;20044;-72
2021/12/27 17:42:05;;;;;;;5.07;2.75;;;;;;;8.24;94.74;99505.97;5092496;28;20130;-74
2021/12/27 17:44:53;;;;;;;6.68;3.05;;;;;;;8.17;95.07;99502.22;5090378;28;20035;-73
2021/12/27 17:47:20;;;;;;;8.07;3.00;;;;;;;8.15;95.32;99501.53;5095250;28;20042;-72
2021/12/27 17:49:46;;;;;;;3.85;2.47;;;;;;;8.14;94.87;99499.84;5089959;28;20040;-73
2021/12/27 17:52:15;;;;;;;6.97;2.92;;;;;;;8.10;95.26;99503.69;5094116;28;20051;-73
2021/12/27 17:54:42;;;;;;;18.30;3.58;;;;;;;8.07;95.81;99503.97;5092567;28;20126;-71
2021/12/27 17:57:10;;;;;;;4.78;2.58;;;;;;;8.04;95.63;99504.25;5094866;28;20108;-74
2021/12/27 17:59:37;;;;;;;5.95;3.47;;;;;;;8.05;95.24;99513.75;5091295;28;20044;-72
2021/12/27 18:02:12;;;;;;;6.55;3.33;;;;;;;8.02;95.34;99511.38;5089749;28;20044;-72
2021/12/27 18:04:41;;;;;;;7.00;3.47;;;;;;;8.00;95.58;99507.25;5095222;28;20063;-72
2021/12/27 18:07:15;;;;;;;10.93;3.95;;;;;;;8.02;95.72;99510.56;5090873;28;20131;-72
2021/12/27 18:09:43;;;;;;;5.55;3.17;;;;;;;8.02;95.67;99506.16;5105086;28;20058;-72
2021/12/27 18:12:15;;;;;;;6.65;2.45;;;;;;;8.02;95.79;99494.88;5097987;28;20446;-72
2021/12/27 18:14:49;;;;;;;4.45;3.00;;;;;;;8.02;95.86;99498.31;5095690;28;20048;-75
2021/12/27 18:17:23;;;;;;;7.55;2.88;;;;;;;8.01;95.12;99496.66;5109252;28;20428;-74
2021/12/27 18:19:50;;;;;;;3.42;2.30;;;;;;;7.99;96.28;99495.16;5090521;28;20490;-73
2021/12/27 18:22:22;;;;;;;3.15;2.05;;;;;;;8.03;95.88;99505.19;5086069;28;20130;-74
2021/12/27 18:24:58;;;;;;;6.38;3.20;;;;;;;7.97;96.12;99497.06;5092413;28;20052;-72
2021/12/27 18:27:39;;;;;;;11.55;3.45;;;;;;;7.99;95.96;99495.97;5095011;28;20186;-73
2021/12/27 18:30:08;;;;;;;6.25;3.10;;;;;;;7.96;96.12;99493.63;5093728;28;20047;-72
2021/12/27 18:32:36;;;;;;;5.63;3.03;;;;;;;7.99;95.97;99490.75;5087537;28;20240;-72
2021/12/27 18:35:04;;;;;;;5.13;3.53;;;;;;;8.01;96.09;99488.00;5091774;28;20071;-73
2021/12/27 18:37:44;;;;;;;4.95;3.08;;;;;;;8.04;95.52;99488.56;5110868;28;20038;-73
2021/12/27 18:40:11;;;;;;;7.32;3.83;;;;;;;8.01;95.77;99491.44;5097441;28;20036;-73
2021/12/27 18:42:43;;;;;;;6.70;4.45;;;;;;;7.99;96.08;99490.75;5094027;28;20048;-73
2021/12/27 18:45:18;;;;;;;6.88;3.88;;;;;;;7.97;96.34;99487.44;5075711;28;20048;-74
2021/12/27 18:47:48;;;;;;;5.30;3.00;;;;;;;8.00;95.74;99492.38;5078765;28;20044;-72
2021/12/27 18:50:17;;;;;;;11.35;3.80;;;;;;;8.02;95.95;99495.69;5076998;28;20039;-72
2021/12/27 18:52:45;;;;;;;6.88;2.63;;;;;;;8.06;95.69;99496.25;5028217;28;20126;-74
2021/12/27 18:55:14;;;;;;;5.30;2.83;;;;;;;8.05;95.70;99484.97;4995582;28;20046;-72
2021/12/27 18:57:43;;;;;;;7.88;4.18;;;;;;;8.01;96.47;99483.56;4990183;28;20065;-72
2021/12/27 19:00:22;;;;;;;13.73;3.65;;;;;;;8.04;95.56;99488.56;4994682;28;20053;-72
2021/12/27 19:03:01;;;;;;;4.50;2.75;;;;;;;8.03;95.89;99486.91;5011494;28;20096;-72
2021/12/27 19:05:29;;;;;;;5.18;2.42;;;;;;;8.04;95.91;99479.88;5010107;28;20053;-72
2021/12/27 19:08:07;;;;;;;4.38;3.08;;;;;;;8.05;95.62;99484.13;5009970;28;20041;-74
2021/12/27 19:10:41;;;;;;;7.45;3.38;;;;;;;8.06;95.40;99488.41;5013821;28;20573;-74